Aérodrome :
LOGIN :

S'inscrire | Disclaimer

   EN    FR    IT 

 










Légende :    VFR   VFR Marginal   IFR   IFR Intensif   IFR Très Intensif
Visi : 
Plafond : 
>= 8 km
>= 3000ft
5 à 8 km
1000 à 3000 ft
1500m à 5 km
500 à 1000 ft
800 à 1500m
200 à 500 ft
< 800m
< 200 ft
Symboles :   Orages  Brouillard  Fortes neiges  Fortes précipitations  Vent > 20 kt
SIGMETs :   Divers  Orages  Givrage  Turbulence  Onde Orograph.  Cendres Volcan.







- Altitude de l'aérodrome : 170 ft
- Code IATA : KRP


EKKA - Karup

DERNIER METAR :
  • 192227Z AUTO 26019G34KT 210V270 4000NDV RA BKN014/// 17/15 Q1009

METARs EXPIRÉS :
  • 192223Z AUTO 25015G29KT 180V260 9999NDV DZ BKN014/// 18/16 Q1008
  • 192208Z AUTO 23018G29KT 180V260 9999NDV BKN017/// 19/16 Q1008
  • 192150Z AUTO 23017G29KT 180V260 9999NDV BKN019/// 19/16 Q1008
  • 192129Z AUTO 24020G33KT 180V260 9999NDV BKN019/// 19/16 Q1008
  • 192050Z AUTO 21018G32KT 180V260 9999NDV BKN020/// 19/16 Q1008
  • 192044Z AUTO 20016G27KT 180V260 9999NDV BKN020/// BKN056/// 19/16 Q1008
  • 192041Z AUTO 20016G27KT 180V260 9999NDV BKN021/// BKN056/// 19/16 Q1008
  • 192020Z AUTO 20015G26KT 180V260 9999NDV BKN020/// BKN058/// 19/16 Q1008
  • 192008Z AUTO 20015G27KT 180V260 9999NDV BKN021/// BKN062/// 19/15 Q1008
  • 191953Z AUTO 20016G27KT 180V260 9999NDV BKN022/// BKN066/// 19/15 Q1009

TAF TAF EKKA
Valide du 19 à 21h jusqu'au 20 à 18h UTC


192016Z 1921/2018 20012KT 9999 FEW020 BKN050
TEMPO 1921/2001 21020G32KT 4000 -RADZ BKN008
TEMPO 2001/2009 BKN012
TEMPO 2009/2016 23012G25KT 4000 -RA BKN008
Pas de NOTAMs connus pour ce terrain.



MET'MAP, la Météo Aéronautique d'un coup d'oeil ! - Copyright ORBIFLY Décembre 2007 - Disclaimer

ORBIFLY MET'MAP TEAM :

Programmation & Développement : Alexandra Zaïnal
Conception & Développement : Baudouin d'Aumeries
Co-Programmation & Développement : Marc-Olivier Méhu
Soutien technique & logistique : Manuel Goepfert

Contact : metmap@orbifly.com




SOURCES & CREDITS :

   NOAA